createdAt,value
2023-05-23T00:00:43.857Z,10.10
2023-05-23T00:04:02.849Z,11.57
2023-05-23T00:07:06.810Z,11.20
2023-05-23T00:10:22.898Z,9.57
2023-05-23T00:13:38.861Z,11.20
2023-05-23T00:17:08.993Z,10.17
2023-05-23T00:20:12.940Z,11.55
2023-05-23T00:23:29.953Z,12.00
2023-05-23T00:26:33.952Z,12.70
2023-05-23T00:29:49.906Z,11.83
2023-05-23T00:33:10.939Z,12.27
2023-05-23T00:36:30.024Z,12.40
2023-05-23T00:39:45.893Z,11.17
2023-05-23T00:43:04.950Z,11.50
2023-05-23T00:46:08.972Z,10.63
2023-05-23T00:49:41.982Z,10.37
2023-05-23T00:52:45.999Z,9.90
2023-05-23T00:56:02.135Z,10.27
2023-05-23T00:59:05.974Z,9.50
2023-05-23T01:02:34.236Z,8.75
2023-05-23T01:05:54.027Z,9.03
2023-05-23T01:09:22.995Z,8.37
2023-05-23T01:12:41.218Z,8.13
2023-05-23T01:16:09.173Z,7.40
2023-05-23T01:19:25.128Z,7.67
2023-05-23T01:23:02.234Z,6.90
2023-05-23T01:26:30.226Z,7.77
2023-05-23T01:30:03.245Z,6.53
2023-05-23T01:33:19.219Z,6.10
2023-05-23T01:36:38.072Z,5.70
2023-05-23T01:39:43.231Z,5.60
2023-05-23T01:42:59.257Z,5.77
2023-05-23T01:46:16.342Z,5.50
2023-05-23T01:49:47.214Z,5.00
2023-05-23T01:53:15.198Z,5.70
2023-05-23T01:56:46.213Z,5.07
2023-05-23T02:00:14.196Z,5.25
2023-05-23T02:03:46.306Z,6.40
2023-05-23T02:06:50.478Z,6.60
2023-05-23T02:10:06.272Z,6.60
2023-05-23T02:13:10.258Z,7.27
2023-05-23T02:16:26.367Z,6.97
2023-05-23T02:19:46.348Z,8.45
2023-05-23T02:23:05.357Z,6.87
2023-05-23T02:26:09.311Z,7.05
2023-05-23T02:29:25.339Z,6.50
2023-05-23T02:32:41.605Z,6.50
2023-05-23T02:36:11.382Z,6.57
2023-05-23T02:39:27.403Z,6.25
2023-05-23T02:42:46.306Z,6.10
2023-05-23T02:46:02.468Z,5.27
2023-05-23T02:49:21.433Z,6.20
2023-05-23T02:52:50.655Z,6.47
2023-05-23T02:56:06.448Z,5.33
2023-05-23T02:59:22.356Z,5.20
2023-05-23T03:02:41.453Z,5.27
2023-05-23T03:05:45.467Z,4.85
2023-05-23T03:09:14.506Z,4.93
2023-05-23T03:12:30.461Z,4.87
2023-05-23T03:15:49.704Z,5.30
2023-05-23T03:19:05.563Z,5.55
2023-05-23T03:22:24.432Z,6.93
2023-05-23T03:25:41.810Z,6.35
2023-05-23T03:28:57.433Z,4.67
2023-05-23T03:32:01.648Z,5.47
2023-05-23T03:35:17.701Z,5.30
2023-05-23T03:38:21.567Z,4.35
2023-05-23T03:41:53.649Z,4.17
2023-05-23T03:45:21.633Z,3.85
2023-05-23T03:48:37.621Z,3.40
2023-05-23T03:51:55.585Z,3.60
2023-05-23T03:55:11.537Z,3.50
2023-05-23T03:58:43.634Z,3.57
2023-05-23T04:02:02.725Z,4.13
2023-05-23T04:05:19.609Z,4.70
2023-05-23T04:08:35.682Z,4.70
2023-05-23T04:11:51.675Z,5.10
2023-05-23T04:15:20.602Z,5.10
2023-05-23T04:18:48.721Z,5.00
2023-05-23T04:22:04.723Z,5.00
2023-05-23T04:25:32.646Z,5.20
2023-05-23T04:29:00.906Z,4.90
2023-05-23T04:32:21.929Z,5.77
2023-05-23T04:35:37.779Z,4.57
2023-05-23T04:38:56.666Z,4.15
2023-05-23T04:42:25.007Z,4.90
2023-05-23T04:45:40.940Z,4.60
2023-05-23T04:49:09.745Z,4.03
2023-05-23T04:52:37.824Z,3.80
2023-05-23T04:55:41.920Z,3.90
2023-05-23T04:59:00.743Z,3.95
2023-05-23T05:02:28.753Z,3.85
2023-05-23T05:06:03.724Z,3.80
2023-05-23T05:09:19.867Z,3.75
2023-05-23T05:12:50.770Z,3.40
2023-05-23T05:16:09.887Z,3.50
2023-05-23T05:19:28.911Z,3.33
2023-05-23T05:22:45.807Z,3.40
2023-05-23T05:26:04.905Z,2.73
2023-05-23T05:29:20.791Z,3.30
2023-05-23T05:32:37.918Z,3.37
2023-05-23T05:35:53.819Z,3.17
2023-05-23T05:39:14.024Z,3.70
2023-05-23T05:42:29.929Z,4.10
2023-05-23T05:45:45.832Z,3.35
2023-05-23T05:49:02.083Z,3.40
2023-05-23T05:52:19.053Z,2.93
2023-05-23T05:55:50.915Z,3.10
2023-05-23T05:59:09.855Z,2.70
2023-05-23T06:02:26.130Z,3.33
2023-05-23T06:05:44.976Z,3.03
2023-05-23T06:08:48.993Z,3.05
2023-05-23T06:12:17.946Z,3.30
2023-05-23T06:15:34.039Z,2.80
2023-05-23T06:18:56.098Z,3.33
2023-05-23T06:22:11.993Z,2.75
2023-05-23T06:25:30.995Z,3.10
2023-05-23T06:28:48.181Z,2.65
2023-05-23T06:32:07.200Z,3.80
2023-05-23T06:35:11.115Z,3.50
2023-05-23T06:38:27.079Z,3.37
2023-05-23T06:41:31.045Z,4.35
2023-05-23T06:45:03.178Z,3.30
2023-05-23T06:48:07.183Z,3.40
2023-05-23T06:51:24.211Z,4.60
2023-05-23T06:54:40.196Z,4.07
2023-05-23T06:57:59.222Z,3.90
2023-05-23T07:01:31.138Z,3.95
2023-05-23T07:04:50.161Z,3.73
2023-05-23T07:08:07.182Z,3.30
2023-05-23T07:11:24.145Z,2.50
2023-05-23T07:14:43.153Z,3.20
2023-05-23T07:18:13.160Z,2.90
2023-05-23T07:21:30.151Z,3.30
2023-05-23T07:24:49.176Z,3.20
2023-05-23T07:28:17.302Z,3.10
2023-05-23T07:31:33.368Z,3.40
2023-05-23T07:35:02.209Z,2.75
2023-05-23T07:38:21.216Z,3.40
2023-05-23T07:41:37.318Z,2.35
2023-05-23T07:44:57.286Z,3.05
2023-05-23T07:48:13.315Z,3.17
2023-05-23T07:51:45.306Z,2.80
2023-05-23T07:55:13.324Z,2.90
2023-05-23T07:58:30.313Z,2.90
2023-05-23T08:01:58.336Z,2.83
2023-05-23T08:05:14.344Z,3.43
2023-05-23T08:08:46.313Z,3.00
2023-05-23T08:12:05.303Z,2.87
2023-05-23T08:15:21.366Z,3.30
2023-05-23T08:18:43.477Z,3.90
2023-05-23T08:22:11.448Z,4.60
2023-05-23T08:25:44.357Z,2.63
2023-05-23T08:29:00.388Z,2.75
2023-05-23T08:32:19.603Z,3.13
2023-05-23T08:35:48.613Z,2.50
2023-05-23T08:39:19.485Z,3.23
2023-05-23T08:42:51.546Z,2.50
2023-05-23T08:46:10.514Z,3.17
2023-05-23T08:49:38.572Z,2.50
2023-05-23T08:53:10.678Z,3.33
2023-05-23T08:56:38.520Z,2.57
2023-05-23T09:00:11.448Z,2.20
2023-05-23T09:03:39.497Z,2.53
2023-05-23T09:06:56.361Z,2.63
2023-05-23T09:10:24.557Z,3.00
2023-05-23T09:13:41.593Z,2.70
2023-05-23T09:17:10.670Z,2.50
2023-05-23T09:20:39.755Z,2.90
2023-05-23T09:24:07.582Z,2.95
2023-05-23T09:27:26.598Z,2.50
2023-05-23T09:30:42.707Z,2.40
2023-05-23T09:34:14.714Z,2.40
2023-05-23T09:37:30.568Z,3.07
2023-05-23T09:40:49.630Z,2.60
2023-05-23T09:43:53.667Z,2.60
2023-05-23T09:47:10.799Z,2.90
2023-05-23T09:50:30.735Z,3.90
2023-05-23T09:54:01.758Z,2.80
2023-05-23T09:57:20.617Z,3.20
2023-05-23T10:00:51.870Z,3.53
2023-05-23T10:04:25.826Z,2.55
2023-05-23T10:07:42.762Z,3.20
2023-05-23T10:11:22.791Z,2.50
2023-05-23T10:14:38.801Z,3.03
2023-05-23T10:18:11.695Z,2.87
2023-05-23T10:21:27.765Z,3.03
2023-05-23T10:24:59.765Z,2.50
2023-05-23T10:28:15.785Z,2.50
2023-05-23T10:31:46.915Z,3.07
2023-05-23T10:35:03.851Z,2.60
2023-05-23T10:38:37.763Z,3.47
2023-05-23T10:41:55.880Z,2.63
2023-05-23T10:45:41.096Z,3.95
2023-05-23T10:48:59.791Z,3.20
2023-05-23T10:52:18.969Z,2.93
2023-05-23T10:55:39.814Z,2.10
2023-05-23T10:59:15.833Z,2.43
2023-05-23T11:02:32.051Z,3.13
2023-05-23T11:05:52.955Z,2.65
2023-05-23T11:08:56.909Z,2.10
2023-05-23T11:12:27.899Z,1.90
2023-05-23T11:15:48.299Z,2.50
2023-05-23T11:19:06.999Z,2.50
2023-05-23T11:22:22.986Z,2.03
2023-05-23T11:25:58.975Z,2.77
2023-05-23T11:29:13.977Z,2.00
2023-05-23T11:32:44.986Z,3.00
2023-05-23T11:36:01.072Z,2.33
2023-05-23T11:39:31.992Z,2.30
2023-05-23T11:42:35.982Z,2.27
2023-05-23T11:46:07.056Z,2.03
2023-05-23T11:49:25.113Z,2.10
2023-05-23T11:52:59.135Z,2.87
2023-05-23T11:56:18.097Z,3.40
2023-05-23T11:59:37.045Z,2.00
2023-05-23T12:02:55.196Z,2.20
2023-05-23T12:06:25.251Z,2.20
2023-05-23T12:09:41.073Z,2.33
2023-05-23T12:13:12.183Z,2.37
2023-05-23T12:16:28.077Z,2.13
2023-05-23T12:19:59.117Z,2.30
2023-05-23T12:23:19.143Z,1.90
2023-05-23T12:26:51.180Z,2.43
2023-05-23T12:29:55.177Z,1.97
2023-05-23T12:33:23.232Z,2.23
2023-05-23T12:36:47.937Z,2.37
2023-05-23T12:40:11.214Z,2.00
2023-05-23T12:43:15.230Z,2.37
2023-05-23T12:46:31.259Z,2.70
2023-05-23T12:49:35.234Z,2.13
2023-05-23T12:52:54.319Z,2.30
2023-05-23T12:56:11.371Z,2.63
2023-05-23T12:59:30.049Z,2.93
2023-05-23T13:02:34.396Z,2.87
2023-05-23T13:05:50.345Z,2.73
2023-05-23T13:08:54.247Z,1.80
2023-05-23T13:12:29.391Z,2.07
2023-05-23T13:15:33.378Z,2.70
2023-05-23T13:18:52.471Z,2.17
2023-05-23T13:21:56.340Z,2.07
2023-05-23T13:25:12.477Z,2.63
2023-05-23T13:28:29.420Z,2.70
2023-05-23T13:31:45.353Z,2.30
2023-05-23T13:34:49.537Z,2.00
2023-05-23T13:38:08.341Z,2.70
2023-05-23T13:41:12.422Z,1.57
2023-05-23T13:44:44.389Z,2.10
2023-05-23T13:47:48.557Z,1.93
2023-05-23T13:51:19.487Z,2.93
2023-05-23T13:54:23.409Z,2.67
2023-05-23T13:57:40.492Z,1.93
2023-05-23T14:00:57.703Z,2.10
2023-05-23T14:04:14.458Z,2.63
2023-05-23T14:07:30.450Z,2.20
2023-05-23T14:10:49.526Z,2.50
2023-05-23T14:14:05.623Z,2.53
2023-05-23T14:17:34.641Z,1.90
2023-05-23T14:20:50.491Z,1.67
2023-05-23T14:24:07.523Z,1.83
2023-05-23T14:27:11.651Z,2.07
2023-05-23T14:30:39.586Z,2.07
2023-05-23T14:33:56.518Z,1.63
2023-05-23T14:37:12.488Z,2.30
2023-05-23T14:40:16.630Z,2.37
2023-05-23T14:43:47.681Z,2.20
2023-05-23T14:46:51.614Z,1.80
2023-05-23T14:50:20.559Z,2.97
2023-05-23T14:53:36.551Z,2.30
2023-05-23T14:56:55.578Z,2.33
2023-05-23T15:00:14.610Z,1.97
2023-05-23T15:03:31.770Z,2.00
2023-05-23T15:07:01.708Z,2.60
2023-05-23T15:10:17.901Z,1.67
2023-05-23T15:13:21.700Z,1.83
2023-05-23T15:16:37.765Z,1.90
2023-05-23T15:19:41.735Z,2.53
2023-05-23T15:23:16.782Z,1.67
2023-05-23T15:26:20.727Z,1.57
2023-05-23T15:29:36.682Z,2.27
2023-05-23T15:32:40.789Z,1.80
2023-05-23T15:35:57.675Z,1.90
2023-05-23T15:39:20.937Z,1.87
2023-05-23T15:42:39.725Z,1.73
2023-05-23T15:45:43.923Z,1.93
2023-05-23T15:49:07.493Z,2.00
2023-05-23T15:52:04.794Z,2.13
2023-05-23T15:55:35.740Z,1.90
2023-05-23T15:58:39.886Z,2.27
2023-05-23T16:01:58.797Z,1.97
2023-05-23T16:05:15.832Z,2.10
2023-05-23T16:08:31.796Z,2.00
2023-05-23T16:12:03.970Z,2.53
2023-05-23T16:15:07.852Z,2.10
2023-05-23T16:18:26.894Z,2.03
2023-05-23T16:21:30.972Z,2.43
2023-05-23T16:24:46.951Z,2.53
2023-05-23T16:28:05.934Z,2.20
2023-05-23T16:31:38.066Z,2.50
2023-05-23T16:34:54.742Z,2.03
2023-05-23T16:38:12.971Z,1.87
2023-05-23T16:41:16.866Z,2.30
2023-05-23T16:44:47.113Z,2.60
2023-05-23T16:47:50.934Z,2.03
2023-05-23T16:51:21.912Z,1.97
2023-05-23T16:54:26.210Z,2.17
2023-05-23T16:57:44.960Z,2.10
2023-05-23T17:01:02.006Z,2.03
2023-05-23T17:04:20.969Z,2.30
2023-05-23T17:07:25.088Z,2.10
2023-05-23T17:10:55.992Z,1.67
2023-05-23T17:14:00.073Z,2.00
2023-05-23T17:17:32.038Z,1.60
2023-05-23T17:20:35.999Z,2.10
2023-05-23T17:23:56.066Z,1.60
2023-05-23T17:27:00.331Z,2.33
2023-05-23T17:30:29.713Z,2.23
2023-05-23T17:33:50.164Z,1.90
2023-05-23T17:37:09.142Z,1.87
2023-05-23T17:40:13.136Z,1.60
2023-05-23T17:43:32.136Z,1.70
2023-05-23T17:46:36.247Z,1.50
2023-05-23T17:50:08.132Z,2.10
2023-05-23T17:53:12.169Z,1.90
2023-05-23T17:56:28.048Z,1.87
2023-05-23T17:59:32.243Z,1.43
2023-05-23T18:02:51.225Z,1.83
2023-05-23T18:06:20.488Z,1.67
2023-05-23T18:09:24.245Z,2.37
2023-05-23T18:12:43.194Z,1.77
2023-05-23T18:15:47.212Z,2.33
2023-05-23T18:19:06.318Z,2.13
2023-05-23T18:22:23.109Z,2.03
2023-05-23T18:25:39.314Z,2.23
2023-05-23T18:28:43.322Z,2.17
2023-05-23T18:32:02.196Z,1.90
2023-05-23T18:35:06.355Z,1.90
2023-05-23T18:38:41.271Z,2.63
2023-05-23T18:41:57.239Z,2.20
2023-05-23T18:45:16.362Z,1.60
2023-05-23T18:48:20.257Z,2.30
2023-05-23T18:51:36.329Z,2.30
2023-05-23T18:54:56.586Z,1.77
2023-05-23T18:58:15.302Z,2.20
2023-05-23T19:01:19.402Z,2.40
2023-05-23T19:04:41.421Z,2.10
2023-05-23T19:07:43.394Z,1.70
2023-05-23T19:11:12.641Z,2.57
2023-05-23T19:14:17.006Z,2.70
2023-05-23T19:17:36.380Z,2.27
2023-05-23T19:20:40.691Z,2.57
2023-05-23T19:23:56.282Z,1.93
2023-05-23T19:27:16.468Z,2.30
2023-05-23T19:30:33.426Z,2.30
2023-05-23T19:33:37.485Z,2.35
2023-05-23T19:36:53.507Z,2.55
2023-05-23T19:39:57.504Z,2.60
2023-05-23T19:43:29.477Z,1.93
2023-05-23T19:46:33.550Z,2.40
2023-05-23T19:49:53.110Z,2.00
2023-05-23T19:53:09.549Z,2.80
2023-05-23T19:56:25.539Z,1.80
2023-05-23T19:59:42.972Z,2.30
2023-05-23T20:03:05.551Z,2.57
2023-05-23T20:06:36.594Z,2.90
2023-05-23T20:09:40.538Z,1.90
2023-05-23T20:13:09.615Z,2.65
2023-05-23T20:16:26.658Z,2.05
2023-05-23T20:19:45.612Z,1.63
2023-05-23T20:22:49.669Z,2.43
2023-05-23T20:26:09.676Z,1.97
2023-05-23T20:29:12.595Z,2.50
2023-05-23T20:32:46.042Z,2.40
2023-05-23T20:35:55.693Z,2.73
2023-05-23T20:39:23.579Z,2.53
2023-05-23T20:42:28.200Z,2.27
2023-05-23T20:46:00.667Z,2.63
2023-05-23T20:49:20.908Z,2.50
2023-05-23T20:52:37.850Z,2.50
2023-05-23T20:55:42.078Z,2.95
2023-05-23T20:58:58.739Z,3.00
2023-05-23T21:02:02.722Z,2.93
2023-05-23T21:05:36.752Z,2.60
2023-05-23T21:08:45.719Z,2.85
2023-05-23T21:12:05.117Z,2.40
2023-05-23T21:15:11.975Z,2.40
2023-05-23T21:18:42.891Z,2.40
2023-05-23T21:22:02.738Z,2.73
2023-05-23T21:25:21.771Z,3.20
2023-05-23T21:28:37.762Z,2.17
2023-05-23T21:31:56.903Z,2.50
2023-05-23T21:35:00.922Z,2.40
2023-05-23T21:38:35.859Z,1.97
2023-05-23T21:41:39.813Z,2.55
2023-05-23T21:44:57.007Z,2.00
2023-05-23T21:48:02.005Z,2.85
2023-05-23T21:51:20.928Z,2.30
2023-05-23T21:54:37.831Z,2.10
2023-05-23T21:57:56.978Z,3.03
2023-05-23T22:01:00.851Z,2.27
2023-05-23T22:04:16.961Z,2.67
2023-05-23T22:07:20.876Z,2.35
2023-05-23T22:10:53.185Z,2.87
2023-05-23T22:13:57.041Z,2.27
2023-05-23T22:17:15.975Z,2.80
2023-05-23T22:20:32.027Z,2.40
2023-05-23T22:23:51.073Z,2.60
2023-05-23T22:27:09.008Z,2.25
2023-05-23T22:30:40.185Z,2.70
2023-05-23T22:33:44.040Z,2.83
2023-05-23T22:37:00.962Z,2.73
2023-05-23T22:40:05.125Z,2.55
2023-05-23T22:43:37.094Z,2.80
2023-05-23T22:46:41.042Z,3.35
2023-05-23T22:49:57.110Z,2.90
2023-05-23T22:53:01.036Z,2.87
2023-05-23T22:56:20.171Z,3.10
2023-05-23T22:59:37.090Z,2.85
2023-05-23T23:02:53.254Z,3.20
2023-05-23T23:05:57.364Z,2.77
2023-05-23T23:09:16.212Z,2.37
2023-05-23T23:12:20.158Z,2.90
2023-05-23T23:15:52.170Z,2.37
2023-05-23T23:18:56.184Z,2.80
2023-05-23T23:22:15.114Z,2.90
2023-05-23T23:25:31.195Z,2.75
2023-05-23T23:28:50.269Z,2.47
2023-05-23T23:32:10.311Z,3.70
2023-05-23T23:35:29.301Z,2.63
2023-05-23T23:38:33.167Z,2.60
2023-05-23T23:41:55.255Z,3.60
2023-05-23T23:44:59.229Z,3.55
2023-05-23T23:48:29.293Z,2.93
2023-05-23T23:51:33.295Z,3.00
2023-05-23T23:55:01.462Z,2.90
2023-05-23T23:58:05.319Z,3.60
